WetterOnline ( http://www.wetteronline.at )

Wetter aktuell Arkona

Aktuelles Wetter: Kap Arkona/Rügen (42m)

6-stündlich | Neueste Meldungen
Ortszeit Temperatur Wetter
So, 21.01. 13:00 0.9° C bedeckt
So, 21.01. 7:00 1.8° C bedeckt
So, 21.01. 1:00 1.4° C bedeckt
Sa, 20.01. 19:00 1.5° C bedeckt
Sa, 20.01. 13:00 1.6° C bedeckt
Sa, 20.01. 7:00 0.9° C bedeckt
Sa, 20.01. 1:00 1.1° C Regen
Fr, 19.01. 19:00 1.1° C bewölkt
Ortszeit Temperatur Wetter
So, 21.01. 17:30 -0.2° C wolkenlos
So, 21.01. 17:20 -0.2° C wolkenlos
So, 21.01. 17:10 -0.0° C wolkenlos
So, 21.01. 17:00 0.4° C leicht bewölkt
So, 21.01. 16:50 0.4° C leicht bewölkt
So, 21.01. 16:40 0.7° C leicht bewölkt
So, 21.01. 16:30 1.7° C leicht bewölkt
So, 21.01. 16:00 1.8° C bedeckt
So, 21.01. 15:30 1.9° C bedeckt
So, 21.01. 15:00 1.8° C bedeckt
So, 21.01. 14:30 1.8° C bedeckt
Ortszeit Relative Feuchte Sichtweite
So, 21.01. 13:00 85% 45 km
So, 21.01. 7:00 90% 6 km
So, 21.01. 1:00 92% 8 km
Sa, 20.01. 19:00 88% 10 km
Sa, 20.01. 13:00 91% 8 km
Sa, 20.01. 7:00 96% 4.1 km
Sa, 20.01. 1:00 97% 3.2 km
Fr, 19.01. 19:00 98% 3.7 km
Ortszeit Relative Feuchte Sichtweite
So, 21.01. 17:30 94% 10 km
So, 21.01. 17:20 94% -
So, 21.01. 17:10 92% -
So, 21.01. 17:00 88% 15 km
So, 21.01. 16:50 88% -
So, 21.01. 16:40 85% -
So, 21.01. 16:30 82% 30 km
So, 21.01. 16:00 80% 40 km
So, 21.01. 15:30 79% 45 km
So, 21.01. 15:00 77% 50 km
So, 21.01. 14:30 80% 55 km
Ortszeit Niederschlagsmenge Niederschlagsart
So, 21.01. 13:00 3 l/m2 in 6 Std. Schnee
So, 21.01. 7:00 0.0 l/m2 in 12 Std. -
So, 21.01. 1:00 0.0 l/m2 in 6 Std. -
Sa, 20.01. 19:00 0.0 l/m2 in 12 Std. -
Sa, 20.01. 13:00 0.0 l/m2 in 6 Std. -
Sa, 20.01. 7:00 0.6 l/m2 in 12 Std. Schnee, Regen
Sa, 20.01. 1:00 0.1 l/m2 in 6 Std. Regen
Fr, 19.01. 19:00 12 l/m2 in 12 Std. Schnee, Regen
Ortszeit Niederschlagsmenge Niederschlagsart
So, 21.01. 17:30 0.0 l/m2 in 1 Std. -
So, 21.01. 17:20 keine Meldung -
So, 21.01. 17:10 keine Meldung -
So, 21.01. 17:00 0.0 l/m2 in 1 Std. -
So, 21.01. 16:50 keine Meldung -
So, 21.01. 16:40 keine Meldung -
So, 21.01. 16:30 0.0 l/m2 in 1 Std. -
So, 21.01. 16:00 0.0 l/m2 in 1 Std. -
So, 21.01. 15:30 0.0 l/m2 in 1 Std. -
So, 21.01. 15:00 0.0 l/m2 in 1 Std. -
So, 21.01. 14:30 0.0 l/m2 in 1 Std. -
Ortszeit Stärke Spitze Richtung
km/h Bft. km/h Grad Sektor
So, 21.01. 13:00 14 3 40 280° W
So, 21.01. 7:00 4 1 14 90° O
So, 21.01. 1:00 7 2 22 180° S
Sa, 20.01. 19:00 14 3 29 190° S
Sa, 20.01. 13:00 22 4 36 230° SW
Sa, 20.01. 7:00 25 4 36 230° SW
Sa, 20.01. 1:00 22 4 29 210° SW
Fr, 19.01. 19:00 24 4 31 220° SW
Ortszeit Stärke Spitze Richtung
km/h Bft. km/h Grad Sektor
So, 21.01. 17:30 13 3 15 240° SW
So, 21.01. 17:20 13 3 - 240° SW
So, 21.01. 17:10 13 3 - 240° SW
So, 21.01. 17:00 9 2 15 250° W
So, 21.01. 16:50 9 2 - 250° W
So, 21.01. 16:40 11 2 - 260° W
So, 21.01. 16:30 7 2 11 270° W
So, 21.01. 16:00 7 2 11 290° W
So, 21.01. 15:30 7 2 11 290° W
So, 21.01. 15:00 7 2 13 290° W
So, 21.01. 14:30 9 2 13 290° W
Ortszeit Untergrenze Bedeckung Gattung
total tief tief mittel hoch
So, 21.01. 13:00 900 m 8/8 8/8 - - -
So, 21.01. 7:00 540 m 8/8 8/8 - - -
So, 21.01. 1:00 1800 m 8/8 8/8 - - -
Sa, 20.01. 19:00 240 m 8/8 8/8 - - -
Sa, 20.01. 13:00 210 m 8/8 8/8 - - -
Sa, 20.01. 7:00 690 m 8/8 8/8 - - -
Sa, 20.01. 1:00 90 m 7/8 7/8 - - -
Fr, 19.01. 19:00 60 m 7/8 7/8 - - -
Ortszeit Bedeckungsgrad in Achtel und Wolkenuntergrenze
So, 21.01. 17:30 keine Wolken
So, 21.01. 17:20 keine Wolken
So, 21.01. 17:10 keine Wolken
So, 21.01. 17:00 1(1800m)
So, 21.01. 16:50 1(1800m) 2(2100m)
So, 21.01. 16:40 1(1800m) 3(2100m)
So, 21.01. 16:30 1(1800m) 4(2100m)
So, 21.01. 16:00 8(2100m)
So, 21.01. 15:30 2(1800m) 8(2100m)
So, 21.01. 15:00 7(1800m) 8(2100m)
So, 21.01. 14:30 8(1800m) 8(2100m)
Ortszeit Luftdruck NN (hPa) Tendenz (hPa in 3 Std.)
So, 21.01. 13:00 1015 + 2,0
So, 21.01. 7:00 1010 + 2,2
So, 21.01. 1:00 1006 + 1,0
Sa, 20.01. 19:00 1004 + 0,1
Sa, 20.01. 13:00 1005 - 0,9
Sa, 20.01. 7:00 1005 - 0,3
Sa, 20.01. 1:00 1006 - 0,3
Fr, 19.01. 19:00 1006 + 0,8
Ortszeit Luftdruck NN (hPa) Tendenz (hPa in 3 Std.)
So, 21.01. 17:30 1017 + 1,6
So, 21.01. 17:20 1017 keine Meldung
So, 21.01. 17:10 1017 keine Meldung
So, 21.01. 17:00 1017 + 1,7
So, 21.01. 16:50 1017 keine Meldung
So, 21.01. 16:40 1017 keine Meldung
So, 21.01. 16:30 1017 + 1,7
So, 21.01. 16:00 1016 + 1,8
So, 21.01. 15:30 1016 + 1,8
So, 21.01. 15:00 1016 + 1,2
So, 21.01. 14:30 1015 + 1,4
Ortszeit Schneehöhe (cm)
So, 21.01. 13:00 0
So, 21.01. 7:00 0
So, 21.01. 1:00 0
Sa, 20.01. 19:00 0
Sa, 20.01. 13:00 0
Sa, 20.01. 7:00 0
Sa, 20.01. 1:00 0
Fr, 19.01. 19:00 0
Ortszeit Schneehöhe (cm)
So, 21.01. 17:30 0
So, 21.01. 17:20 0
So, 21.01. 17:10 0
So, 21.01. 17:00 0
So, 21.01. 16:50 0
So, 21.01. 16:40 0
So, 21.01. 16:30 0
So, 21.01. 16:00 0
So, 21.01. 15:30 0
So, 21.01. 15:00 0
So, 21.01. 14:30 0
Link zu dieser Seite / Seite empfehlen

Das Wetter in ...